sensor_id;sensor_type;location;lat;lon;timestamp;pressure;altitude;pressure_sealevel;temperature;humidity
67015;BME280;1033;52.560;13.374;2022-10-17T00:01:28;101738.84;;;13.69;85.61
67015;BME280;1033;52.560;13.374;2022-10-17T00:03:57;101737.34;;;13.60;86.22
67015;BME280;1033;52.560;13.374;2022-10-17T00:06:26;101737.09;;;13.55;86.33
67015;BME280;1033;52.560;13.374;2022-10-17T00:08:55;101742.72;;;13.53;86.61
67015;BME280;1033;52.560;13.374;2022-10-17T00:11:24;101743.81;;;13.59;86.19
67015;BME280;1033;52.560;13.374;2022-10-17T00:13:55;101747.97;;;13.55;86.66
67015;BME280;1033;52.560;13.374;2022-10-17T00:16:25;101744.59;;;13.53;86.89
67015;BME280;1033;52.560;13.374;2022-10-17T00:18:54;101728.94;;;13.55;86.69
67015;BME280;1033;52.560;13.374;2022-10-17T00:21:24;101721.41;;;13.50;86.95
67015;BME280;1033;52.560;13.374;2022-10-17T00:23:53;101720.56;;;13.56;86.54
67015;BME280;1033;52.560;13.374;2022-10-17T00:26:22;101716.16;;;13.48;86.97
67015;BME280;1033;52.560;13.374;2022-10-17T00:28:53;101732.66;;;13.47;87.20
67015;BME280;1033;52.560;13.374;2022-10-17T00:31:25;101733.25;;;13.42;87.55
67015;BME280;1033;52.560;13.374;2022-10-17T00:33:54;101724.72;;;13.45;87.60
67015;BME280;1033;52.560;13.374;2022-10-17T00:36:26;101717.59;;;13.44;87.65
67015;BME280;1033;52.560;13.374;2022-10-17T00:38:57;101712.53;;;13.41;87.75
67015;BME280;1033;52.560;13.374;2022-10-17T00:41:28;101715.66;;;13.38;88.04
67015;BME280;1033;52.560;13.374;2022-10-17T00:44:00;101720.69;;;13.41;88.14
67015;BME280;1033;52.560;13.374;2022-10-17T00:46:30;101722.13;;;13.37;88.24
67015;BME280;1033;52.560;13.374;2022-10-17T00:49:03;101726.13;;;13.41;88.47
67015;BME280;1033;52.560;13.374;2022-10-17T00:51:36;101735.34;;;13.40;88.82
67015;BME280;1033;52.560;13.374;2022-10-17T00:54:06;101738.31;;;13.45;88.56
67015;BME280;1033;52.560;13.374;2022-10-17T00:56:36;101743.34;;;13.48;88.47
67015;BME280;1033;52.560;13.374;2022-10-17T00:59:09;101740.44;;;13.50;88.53
67015;BME280;1033;52.560;13.374;2022-10-17T01:01:40;101752.16;;;13.51;88.48
67015;BME280;1033;52.560;13.374;2022-10-17T01:04:12;101743.16;;;13.57;88.32
67015;BME280;1033;52.560;13.374;2022-10-17T01:06:43;101737.97;;;13.62;87.53
67015;BME280;1033;52.560;13.374;2022-10-17T01:09:12;101723.31;;;13.63;87.35
67015;BME280;1033;52.560;13.374;2022-10-17T01:11:48;101711.78;;;13.61;87.31
67015;BME280;1033;52.560;13.374;2022-10-17T01:14:23;101712.63;;;13.55;87.53
67015;BME280;1033;52.560;13.374;2022-10-17T01:17:00;101717.38;;;13.46;88.25
67015;BME280;1033;52.560;13.374;2022-10-17T01:19:43;101714.41;;;13.34;88.77
67015;BME280;1033;52.560;13.374;2022-10-17T01:22:23;101717.66;;;13.23;89.55
67015;BME280;1033;52.560;13.374;2022-10-17T01:25:21;101710.44;;;13.09;90.16
67015;BME280;1033;52.560;13.374;2022-10-17T01:28:10;101713.69;;;12.98;90.72
67015;BME280;1033;52.560;13.374;2022-10-17T01:30:56;101722.00;;;12.90;91.57
67015;BME280;1033;52.560;13.374;2022-10-17T01:33:41;101711.06;;;12.83;92.18
67015;BME280;1033;52.560;13.374;2022-10-17T01:36:15;101716.47;;;12.77;92.68
67015;BME280;1033;52.560;13.374;2022-10-17T01:38:49;101708.16;;;12.85;93.61
67015;BME280;1033;52.560;13.374;2022-10-17T01:41:26;101703.06;;;13.03;93.82
67015;BME280;1033;52.560;13.374;2022-10-17T01:44:01;101698.25;;;13.26;92.17
67015;BME280;1033;52.560;13.374;2022-10-17T01:46:36;101690.91;;;13.27;91.91
67015;BME280;1033;52.560;13.374;2022-10-17T01:49:08;101694.06;;;13.24;91.59
67015;BME280;1033;52.560;13.374;2022-10-17T01:51:41;101697.19;;;13.21;91.87
67015;BME280;1033;52.560;13.374;2022-10-17T01:54:15;101701.91;;;13.12;92.17
67015;BME280;1033;52.560;13.374;2022-10-17T01:56:48;101694.31;;;13.01;92.70
67015;BME280;1033;52.560;13.374;2022-10-17T01:59:22;101691.34;;;13.02;92.79
67015;BME280;1033;52.560;13.374;2022-10-17T02:01:56;101686.50;;;12.91;94.04
67015;BME280;1033;52.560;13.374;2022-10-17T02:04:27;101688.81;;;12.94;94.68
67015;BME280;1033;52.560;13.374;2022-10-17T02:06:56;101690.06;;;12.92;94.62
67015;BME280;1033;52.560;13.374;2022-10-17T02:09:33;101688.06;;;12.79;94.46
67015;BME280;1033;52.560;13.374;2022-10-17T02:12:15;101693.00;;;12.69;95.25
67015;BME280;1033;52.560;13.374;2022-10-17T02:15:02;101695.88;;;12.61;95.82
67015;BME280;1033;52.560;13.374;2022-10-17T02:17:44;101695.34;;;12.51;96.18
67015;BME280;1033;52.560;13.374;2022-10-17T02:20:23;101693.66;;;12.50;97.31
67015;BME280;1033;52.560;13.374;2022-10-17T02:22:57;101694.63;;;12.63;99.56
67015;BME280;1033;52.560;13.374;2022-10-17T02:25:35;101685.16;;;12.81;100.00
67015;BME280;1033;52.560;13.374;2022-10-17T02:28:15;101692.63;;;13.00;100.00
67015;BME280;1033;52.560;13.374;2022-10-17T02:30:52;101692.34;;;13.16;100.00
67015;BME280;1033;52.560;13.374;2022-10-17T02:33:26;101695.53;;;13.26;100.00
67015;BME280;1033;52.560;13.374;2022-10-17T02:36:00;101685.59;;;13.46;100.00
67015;BME280;1033;52.560;13.374;2022-10-17T02:38:32;101678.53;;;13.59;100.00
67015;BME280;1033;52.560;13.374;2022-10-17T02:41:01;101684.44;;;13.69;100.00
67015;BME280;1033;52.560;13.374;2022-10-17T02:43:32;101686.56;;;13.80;100.00
67015;BME280;1033;52.560;13.374;2022-10-17T02:46:02;101682.63;;;13.89;100.00
67015;BME280;1033;52.560;13.374;2022-10-17T02:48:37;101680.97;;;14.01;100.00
67015;BME280;1033;52.560;13.374;2022-10-17T02:51:14;101680.97;;;14.01;100.00
67015;BME280;1033;52.560;13.374;2022-10-17T02:53:54;101670.28;;;13.93;100.00
67015;BME280;1033;52.560;13.374;2022-10-17T02:56:27;101672.84;;;14.08;100.00
67015;BME280;1033;52.560;13.374;2022-10-17T02:58:59;101679.13;;;14.08;100.00
67015;BME280;1033;52.560;13.374;2022-10-17T03:01:30;101672.38;;;14.04;100.00
67015;BME280;1033;52.560;13.374;2022-10-17T03:04:08;101677.44;;;14.07;100.00
67015;BME280;1033;52.560;13.374;2022-10-17T03:06:38;101673.25;;;14.11;100.00
67015;BME280;1033;52.560;13.374;2022-10-17T03:09:08;101664.06;;;14.12;100.00
67015;BME280;1033;52.560;13.374;2022-10-17T03:11:37;101665.50;;;14.08;100.00
67015;BME280;1033;52.560;13.374;2022-10-17T03:14:08;101666.34;;;14.15;100.00
67015;BME280;1033;52.560;13.374;2022-10-17T03:16:37;101662.38;;;14.18;100.00
67015;BME280;1033;52.560;13.374;2022-10-17T03:19:08;101669.28;;;14.20;100.00
67015;BME280;1033;52.560;13.374;2022-10-17T03:21:37;101673.28;;;14.31;100.00
67015;BME280;1033;52.560;13.374;2022-10-17T03:24:07;101677.88;;;14.30;100.00
67015;BME280;1033;52.560;13.374;2022-10-17T03:26:36;101682.50;;;14.30;100.00
67015;BME280;1033;52.560;13.374;2022-10-17T03:29:06;101674.31;;;14.23;100.00
67015;BME280;1033;52.560;13.374;2022-10-17T03:31:35;101667.66;;;14.32;100.00
67015;BME280;1033;52.560;13.374;2022-10-17T03:34:07;101660.69;;;14.23;100.00
67015;BME280;1033;52.560;13.374;2022-10-17T03:36:36;101655.53;;;14.42;100.00
67015;BME280;1033;52.560;13.374;2022-10-17T03:39:06;101659.91;;;14.36;100.00
67015;BME280;1033;52.560;13.374;2022-10-17T03:41:35;101656.53;;;14.34;100.00
67015;BME280;1033;52.560;13.374;2022-10-17T03:44:04;101654.84;;;14.26;100.00
67015;BME280;1033;52.560;13.374;2022-10-17T03:46:33;101661.75;;;14.29;100.00
67015;BME280;1033;52.560;13.374;2022-10-17T03:49:03;101661.56;;;14.17;100.00
67015;BME280;1033;52.560;13.374;2022-10-17T03:51:34;101661.94;;;14.01;100.00
67015;BME280;1033;52.560;13.374;2022-10-17T03:54:08;101658.97;;;13.96;100.00
67015;BME280;1033;52.560;13.374;2022-10-17T03:56:37;101655.19;;;13.90;100.00
67015;BME280;1033;52.560;13.374;2022-10-17T03:59:13;101658.56;;;13.92;100.00
67015;BME280;1033;52.560;13.374;2022-10-17T04:01:47;101651.44;;;13.91;100.00
67015;BME280;1033;52.560;13.374;2022-10-17T04:04:18;101646.41;;;13.88;100.00
67015;BME280;1033;52.560;13.374;2022-10-17T04:06:48;101643.13;;;14.13;100.00
67015;BME280;1033;52.560;13.374;2022-10-17T04:09:17;101641.00;;;14.02;100.00
67015;BME280;1033;52.560;13.374;2022-10-17T04:11:56;101641.63;;;13.97;100.00
67015;BME280;1033;52.560;13.374;2022-10-17T04:14:25;101638.28;;;14.02;100.00
67015;BME280;1033;52.560;13.374;2022-10-17T04:16:55;101649.34;;;13.87;100.00
67015;BME280;1033;52.560;13.374;2022-10-17T04:19:26;101644.31;;;13.84;100.00
67015;BME280;1033;52.560;13.374;2022-10-17T04:21:56;101642.41;;;13.78;100.00
67015;BME280;1033;52.560;13.374;2022-10-17T04:24:27;101643.47;;;13.83;100.00
67015;BME280;1033;52.560;13.374;2022-10-17T04:27:18;101650.22;;;13.94;100.00
67015;BME280;1033;52.560;13.374;2022-10-17T04:29:48;101650.16;;;13.81;100.00
67015;BME280;1033;52.560;13.374;2022-10-17T04:32:21;101645.75;;;13.73;100.00
67015;BME280;1033;52.560;13.374;2022-10-17T04:35:01;101649.50;;;13.72;100.00
67015;BME280;1033;52.560;13.374;2022-10-17T04:37:32;101649.31;;;13.74;100.00
67015;BME280;1033;52.560;13.374;2022-10-17T04:40:09;101648.88;;;13.77;100.00
67015;BME280;1033;52.560;13.374;2022-10-17T04:42:38;101643.66;;;13.69;100.00
67015;BME280;1033;52.560;13.374;2022-10-17T04:45:09;101647.16;;;13.63;100.00
67015;BME280;1033;52.560;13.374;2022-10-17T04:47:39;101650.97;;;13.68;100.00
67015;BME280;1033;52.560;13.374;2022-10-17T04:50:08;101644.25;;;13.71;100.00
67015;BME280;1033;52.560;13.374;2022-10-17T04:52:40;101650.69;;;13.57;100.00
67015;BME280;1033;52.560;13.374;2022-10-17T04:55:09;101643.00;;;13.60;100.00
67015;BME280;1033;52.560;13.374;2022-10-17T04:57:39;101643.00;;;13.60;100.00
67015;BME280;1033;52.560;13.374;2022-10-17T05:00:17;101635.25;;;13.64;100.00
67015;BME280;1033;52.560;13.374;2022-10-17T05:02:58;101643.44;;;13.77;100.00
67015;BME280;1033;52.560;13.374;2022-10-17T05:05:28;101636.78;;;13.86;100.00
67015;BME280;1033;52.560;13.374;2022-10-17T05:07:58;101635.72;;;13.87;100.00
67015;BME280;1033;52.560;13.374;2022-10-17T05:10:35;101632.56;;;13.77;100.00
67015;BME280;1033;52.560;13.374;2022-10-17T05:13:05;101642.00;;;13.81;100.00
67015;BME280;1033;52.560;13.374;2022-10-17T05:15:36;101642.00;;;13.81;100.00
67015;BME280;1033;52.560;13.374;2022-10-17T05:18:06;101640.91;;;13.69;100.00
67015;BME280;1033;52.560;13.374;2022-10-17T05:20:36;101636.28;;;13.63;100.00
67015;BME280;1033;52.560;13.374;2022-10-17T05:23:07;101648.44;;;13.60;100.00
67015;BME280;1033;52.560;13.374;2022-10-17T05:25:40;101640.47;;;13.65;100.00
67015;BME280;1033;52.560;13.374;2022-10-17T05:28:08;101645.50;;;13.62;100.00
67015;BME280;1033;52.560;13.374;2022-10-17T05:30:39;101642.16;;;13.60;100.00
67015;BME280;1033;52.560;13.374;2022-10-17T05:33:09;101647.16;;;13.63;100.00
67015;BME280;1033;52.560;13.374;2022-10-17T05:35:38;101638.38;;;13.61;100.00
67015;BME280;1033;52.560;13.374;2022-10-17T05:38:08;101641.75;;;13.76;100.00
67015;BME280;1033;52.560;13.374;2022-10-17T05:40:39;101639.28;;;13.81;100.00
67015;BME280;1033;52.560;13.374;2022-10-17T05:43:08;101637.59;;;13.80;100.00
67015;BME280;1033;52.560;13.374;2022-10-17T05:45:37;101641.31;;;13.66;100.00
67015;BME280;1033;52.560;13.374;2022-10-17T05:48:09;101646.97;;;13.71;100.00
67015;BME280;1033;52.560;13.374;2022-10-17T05:50:38;101641.38;;;13.79;100.00
67015;BME280;1033;52.560;13.374;2022-10-17T05:53:14;101642.63;;;13.83;100.00
67015;BME280;1033;52.560;13.374;2022-10-17T05:55:55;101647.44;;;13.81;100.00
67015;BME280;1033;52.560;13.374;2022-10-17T05:58:24;101650.22;;;13.94;100.00
67015;BME280;1033;52.560;13.374;2022-10-17T06:01:27;101660.66;;;13.97;100.00
67015;BME280;1033;52.560;13.374;2022-10-17T06:03:56;101663.19;;;13.99;100.00
67015;BME280;1033;52.560;13.374;2022-10-17T06:06:25;101661.50;;;14.04;100.00
67015;BME280;1033;52.560;13.374;2022-10-17T06:08:56;101660.91;;;14.15;100.00
67015;BME280;1033;52.560;13.374;2022-10-17T06:11:31;101670.75;;;14.29;100.00
67015;BME280;1033;52.560;13.374;2022-10-17T06:14:00;101679.41;;;14.40;100.00
67015;BME280;1033;52.560;13.374;2022-10-17T06:16:30;101679.19;;;14.48;100.00
67015;BME280;1033;52.560;13.374;2022-10-17T06:18:59;101673.97;;;14.66;100.00
67015;BME280;1033;52.560;13.374;2022-10-17T06:21:28;101687.56;;;14.72;100.00
67015;BME280;1033;52.560;13.374;2022-10-17T06:24:08;101691.13;;;14.73;100.00
67015;BME280;1033;52.560;13.374;2022-10-17T06:26:40;101688.63;;;14.78;100.00
67015;BME280;1033;52.560;13.374;2022-10-17T06:29:11;101692.19;;;14.78;100.00
67015;BME280;1033;52.560;13.374;2022-10-17T06:31:45;101687.56;;;14.72;100.00
67015;BME280;1033;52.560;13.374;2022-10-17T06:34:14;101687.97;;;14.83;100.00
67015;BME280;1033;52.560;13.374;2022-10-17T06:36:44;101698.47;;;14.92;100.00
67015;BME280;1033;52.560;13.374;2022-10-17T06:39:15;101699.91;;;15.01;100.00
67015;BME280;1033;52.560;13.374;2022-10-17T06:41:51;101699.72;;;15.09;98.79
67015;BME280;1033;52.560;13.374;2022-10-17T06:44:20;101700.16;;;15.00;99.48
67015;BME280;1033;52.560;13.374;2022-10-17T06:47:13;101703.88;;;15.18;98.17
67015;BME280;1033;52.560;13.374;2022-10-17T06:49:46;101704.28;;;15.22;97.86
67015;BME280;1033;52.560;13.374;2022-10-17T06:52:24;101707.00;;;15.29;98.19
67015;BME280;1033;52.560;13.374;2022-10-17T06:55:13;101702.59;;;15.34;96.97
67015;BME280;1033;52.560;13.374;2022-10-17T06:58:06;101697.50;;;15.44;96.61
67015;BME280;1033;52.560;13.374;2022-10-17T07:00:46;101688.69;;;15.49;95.64
67015;BME280;1033;52.560;13.374;2022-10-17T07:03:16;101701.66;;;15.73;94.26
67015;BME280;1033;52.560;13.374;2022-10-17T07:05:50;101696.13;;;15.80;93.26
67015;BME280;1033;52.560;13.374;2022-10-17T07:08:20;101699.81;;;15.98;91.78
67015;BME280;1033;52.560;13.374;2022-10-17T07:10:51;101704.81;;;16.08;91.12
67015;BME280;1033;52.560;13.374;2022-10-17T07:13:20;101702.69;;;16.17;90.61
67015;BME280;1033;52.560;13.374;2022-10-17T07:15:50;101711.38;;;16.32;90.07
67015;BME280;1033;52.560;13.374;2022-10-17T07:18:19;101719.25;;;16.46;88.61
67015;BME280;1033;52.560;13.374;2022-10-17T07:20:52;101734.31;;;16.56;88.31
67015;BME280;1033;52.560;13.374;2022-10-17T07:23:22;101727.09;;;16.74;86.88
67015;BME280;1033;52.560;13.374;2022-10-17T07:25:58;101727.97;;;16.68;86.39
67015;BME280;1033;52.560;13.374;2022-10-17T07:28:28;101727.97;;;16.68;86.36
67015;BME280;1033;52.560;13.374;2022-10-17T07:31:07;101729.66;;;16.69;86.07
67015;BME280;1033;52.560;13.374;2022-10-17T07:33:37;101735.34;;;16.68;85.91
67015;BME280;1033;52.560;13.374;2022-10-17T07:36:07;101730.88;;;16.73;86.17
67015;BME280;1033;52.560;13.374;2022-10-17T07:38:36;101726.97;;;16.87;84.94
67015;BME280;1033;52.560;13.374;2022-10-17T07:41:08;101724.94;;;17.01;84.94
67015;BME280;1033;52.560;13.374;2022-10-17T07:43:38;101723.00;;;17.08;83.73
67015;BME280;1033;52.560;13.374;2022-10-17T07:46:10;101726.88;;;17.19;83.36
67015;BME280;1033;52.560;13.374;2022-10-17T07:48:39;101729.50;;;17.32;82.43
67015;BME280;1033;52.560;13.374;2022-10-17T07:51:09;101733.75;;;17.46;80.97
67015;BME280;1033;52.560;13.374;2022-10-17T07:53:38;101725.72;;;17.69;80.21
67015;BME280;1033;52.560;13.374;2022-10-17T07:56:16;101739.41;;;17.69;79.41
67015;BME280;1033;52.560;13.374;2022-10-17T07:58:45;101733.72;;;17.71;80.05
67015;BME280;1033;52.560;13.374;2022-10-17T08:01:15;101737.53;;;17.70;79.55
67015;BME280;1033;52.560;13.374;2022-10-17T08:03:44;101743.03;;;17.81;78.75
67015;BME280;1033;52.560;13.374;2022-10-17T08:06:15;101733.19;;;17.80;79.14
67015;BME280;1033;52.560;13.374;2022-10-17T08:08:44;101733.84;;;17.94;78.61
67015;BME280;1033;52.560;13.374;2022-10-17T08:11:15;101731.31;;;17.93;78.00
67015;BME280;1033;52.560;13.374;2022-10-17T08:13:44;101735.81;;;18.05;78.28
67015;BME280;1033;52.560;13.374;2022-10-17T08:16:13;101730.50;;;18.22;77.41
67015;BME280;1033;52.560;13.374;2022-10-17T08:18:43;101730.44;;;18.40;76.57
67015;BME280;1033;52.560;13.374;2022-10-17T08:21:13;101729.19;;;18.54;75.69
67015;BME280;1033;52.560;13.374;2022-10-17T08:23:42;101726.16;;;18.62;74.71
67015;BME280;1033;52.560;13.374;2022-10-17T08:26:11;101725.91;;;18.76;74.25
67015;BME280;1033;52.560;13.374;2022-10-17T08:28:45;101726.66;;;18.83;73.95
67015;BME280;1033;52.560;13.374;2022-10-17T08:31:15;101730.81;;;18.85;73.49
67015;BME280;1033;52.560;13.374;2022-10-17T08:33:46;101724.97;;;18.82;74.35
67015;BME280;1033;52.560;13.374;2022-10-17T08:36:18;101729.00;;;18.79;73.98
67015;BME280;1033;52.560;13.374;2022-10-17T08:38:47;101724.16;;;18.81;74.43
67015;BME280;1033;52.560;13.374;2022-10-17T08:41:34;101717.59;;;18.94;73.78
67015;BME280;1033;52.560;13.374;2022-10-17T08:44:16;101727.38;;;19.13;72.67
67015;BME280;1033;52.560;13.374;2022-10-17T08:46:52;101727.59;;;19.23;71.66
67015;BME280;1033;52.560;13.374;2022-10-17T08:49:30;101720.56;;;19.39;71.74
67015;BME280;1033;52.560;13.374;2022-10-17T08:52:09;101718.44;;;19.41;71.87
67015;BME280;1033;52.560;13.374;2022-10-17T08:54:42;101719.13;;;19.60;70.41
67015;BME280;1033;52.560;13.374;2022-10-17T08:57:13;101719.25;;;19.65;70.43
67015;BME280;1033;52.560;13.374;2022-10-17T08:59:48;101718.31;;;19.59;70.30
67015;BME280;1033;52.560;13.374;2022-10-17T09:02:36;101722.00;;;19.65;70.25
67015;BME280;1033;52.560;13.374;2022-10-17T09:05:26;101718.00;;;19.84;69.61
67015;BME280;1033;52.560;13.374;2022-10-17T09:08:06;101721.41;;;19.91;69.19
67015;BME280;1033;52.560;13.374;2022-10-17T09:10:46;101727.81;;;20.08;68.76
67015;BME280;1033;52.560;13.374;2022-10-17T09:16:33;101732.50;;;20.24;68.05
67015;BME280;1033;52.560;13.374;2022-10-17T09:19:10;101735.59;;;20.39;67.33
67015;BME280;1033;52.560;13.374;2022-10-17T09:21:43;101735.69;;;20.45;67.58
67015;BME280;1033;52.560;13.374;2022-10-17T09:24:16;101733.81;;;20.62;67.11
67015;BME280;1033;52.560;13.374;2022-10-17T09:26:47;101732.88;;;20.73;66.53
67015;BME280;1033;52.560;13.374;2022-10-17T09:29:20;101724.72;;;20.95;65.67
67015;BME280;1033;52.560;13.374;2022-10-17T09:31:58;101716.19;;;20.96;65.02
67015;BME280;1033;52.560;13.374;2022-10-17T09:34:30;101715.19;;;21.02;65.02
67015;BME280;1033;52.560;13.374;2022-10-17T09:37:00;101716.88;;;21.03;65.09
67015;BME280;1033;52.560;13.374;2022-10-17T09:39:30;101720.72;;;21.19;63.80
67015;BME280;1033;52.560;13.374;2022-10-17T09:42:00;101719.88;;;21.18;64.36
67015;BME280;1033;52.560;13.374;2022-10-17T09:44:32;101716.53;;;21.33;64.03
67015;BME280;1033;52.560;13.374;2022-10-17T09:47:11;101714.47;;;21.45;63.42
67015;BME280;1033;52.560;13.374;2022-10-17T09:49:45;101717.19;;;21.62;62.73
67015;BME280;1033;52.560;13.374;2022-10-17T09:52:19;101711.94;;;21.60;62.80
67015;BME280;1033;52.560;13.374;2022-10-17T09:54:51;101713.28;;;21.80;62.49
67015;BME280;1033;52.560;13.374;2022-10-17T09:57:22;101717.00;;;21.90;61.94
67015;BME280;1033;52.560;13.374;2022-10-17T09:59:58;101716.75;;;21.92;61.96
67015;BME280;1033;52.560;13.374;2022-10-17T10:02:30;101713.97;;;22.14;60.82
67015;BME280;1033;52.560;13.374;2022-10-17T10:05:08;101706.72;;;22.07;61.12
67015;BME280;1033;52.560;13.374;2022-10-17T10:07:58;101702.50;;;22.22;60.43
67015;BME280;1033;52.560;13.374;2022-10-17T10:10:30;101712.38;;;22.44;59.86
67015;BME280;1033;52.560;13.374;2022-10-17T10:13:15;101711.63;;;22.54;59.46
67015;BME280;1033;52.560;13.374;2022-10-17T10:15:46;101716.00;;;22.77;58.44
67015;BME280;1033;52.560;13.374;2022-10-17T10:18:33;101710.00;;;22.58;58.32
67015;BME280;1033;52.560;13.374;2022-10-17T10:21:09;101712.44;;;22.81;58.19
67015;BME280;1033;52.560;13.374;2022-10-17T10:23:40;101713.06;;;22.88;58.09
67015;BME280;1033;52.560;13.374;2022-10-17T10:26:21;101715.06;;;22.98;57.54
67015;BME280;1033;52.560;13.374;2022-10-17T10:28:56;101719.28;;;23.11;57.07
67015;BME280;1033;52.560;13.374;2022-10-17T10:31:32;101726.38;;;22.96;56.98
67015;BME280;1033;52.560;13.374;2022-10-17T10:34:14;101712.94;;;23.10;56.95
67015;BME280;1033;52.560;13.374;2022-10-17T10:36:54;101710.75;;;23.12;56.98
67015;BME280;1033;52.560;13.374;2022-10-17T10:39:32;101708.91;;;23.28;56.64
67015;BME280;1033;52.560;13.374;2022-10-17T10:42:05;101719.22;;;23.43;56.67
67015;BME280;1033;52.560;13.374;2022-10-17T10:44:36;101708.56;;;23.56;55.86
67015;BME280;1033;52.560;13.374;2022-10-17T10:47:19;101719.06;;;23.59;55.33
67015;BME280;1033;52.560;13.374;2022-10-17T10:50:05;101705.81;;;23.61;54.85
67015;BME280;1033;52.560;13.374;2022-10-17T10:52:40;101701.41;;;23.65;54.52
67015;BME280;1033;52.560;13.374;2022-10-17T10:55:21;101692.03;;;23.66;55.14
67015;BME280;1033;52.560;13.374;2022-10-17T10:57:55;101691.22;;;23.71;54.92
67015;BME280;1033;52.560;13.374;2022-10-17T11:00:27;101685.16;;;23.84;54.50
67015;BME280;1033;52.560;13.374;2022-10-17T11:03:03;101697.91;;;23.95;54.33
67015;BME280;1033;52.560;13.374;2022-10-17T11:05:43;101703.78;;;24.14;53.57
67015;BME280;1033;52.560;13.374;2022-10-17T11:08:22;101703.50;;;24.10;53.49
67015;BME280;1033;52.560;13.374;2022-10-17T11:11:06;101698.25;;;24.14;53.69
67015;BME280;1033;52.560;13.374;2022-10-17T11:13:45;101695.47;;;24.14;53.67
67015;BME280;1033;52.560;13.374;2022-10-17T11:16:27;101692.47;;;24.25;53.46
67015;BME280;1033;52.560;13.374;2022-10-17T11:19:04;101686.13;;;24.40;53.05
67015;BME280;1033;52.560;13.374;2022-10-17T11:21:42;101675.63;;;24.37;52.25
67015;BME280;1033;52.560;13.374;2022-10-17T11:24:20;101678.66;;;24.36;52.64
67015;BME280;1033;52.560;13.374;2022-10-17T11:26:54;101678.41;;;24.42;52.58
67015;BME280;1033;52.560;13.374;2022-10-17T11:29:28;101674.53;;;24.48;52.15
67015;BME280;1033;52.560;13.374;2022-10-17T11:32:02;101669.84;;;24.54;52.40
67015;BME280;1033;52.560;13.374;2022-10-17T11:34:39;101675.63;;;24.57;51.61
67015;BME280;1033;52.560;13.374;2022-10-17T11:37:14;101673.72;;;24.58;51.38
67015;BME280;1033;52.560;13.374;2022-10-17T11:39:48;101671.22;;;24.51;51.78
67015;BME280;1033;52.560;13.374;2022-10-17T11:42:24;101674.25;;;24.70;51.08
67015;BME280;1033;52.560;13.374;2022-10-17T11:44:59;101682.84;;;24.68;51.11
67015;BME280;1033;52.560;13.374;2022-10-17T11:47:42;101682.84;;;24.68;50.48
67015;BME280;1033;52.560;13.374;2022-10-17T11:50:25;101672.59;;;24.89;50.40
67015;BME280;1033;52.560;13.374;2022-10-17T11:53:18;101667.34;;;24.83;50.16
67015;BME280;1033;52.560;13.374;2022-10-17T11:55:48;101672.03;;;24.72;49.94
67015;BME280;1033;52.560;13.374;2022-10-17T11:58:27;101664.56;;;24.98;49.79
67015;BME280;1033;52.560;13.374;2022-10-17T12:01:06;101659.28;;;25.12;49.84
67015;BME280;1033;52.560;13.374;2022-10-17T12:04:02;101659.03;;;24.98;49.46
67015;BME280;1033;52.560;13.374;2022-10-17T12:06:44;101664.25;;;25.15;49.27
67015;BME280;1033;52.560;13.374;2022-10-17T12:09:24;101672.25;;;25.26;48.59
67015;BME280;1033;52.560;13.374;2022-10-17T12:11:57;101666.13;;;25.39;48.42
67015;BME280;1033;52.560;13.374;2022-10-17T12:14:38;101652.53;;;25.38;48.39
67015;BME280;1033;52.560;13.374;2022-10-17T12:17:38;101667.81;;;25.25;48.63
67015;BME280;1033;52.560;13.374;2022-10-17T12:20:28;101658.91;;;25.33;48.46
67015;BME280;1033;52.560;13.374;2022-10-17T12:23:16;101658.41;;;25.31;48.55
67015;BME280;1033;52.560;13.374;2022-10-17T12:25:53;101647.56;;;25.40;48.22
67015;BME280;1033;52.560;13.374;2022-10-17T12:28:31;101650.88;;;25.37;48.28
67015;BME280;1033;52.560;13.374;2022-10-17T12:31:04;101652.28;;;25.34;48.49
67015;BME280;1033;52.560;13.374;2022-10-17T12:33:37;101648.06;;;25.42;48.29
67015;BME280;1033;52.560;13.374;2022-10-17T12:39:41;101639.44;;;25.53;48.02
67015;BME280;1033;52.560;13.374;2022-10-17T12:42:29;101638.88;;;25.62;47.65
67015;BME280;1033;52.560;13.374;2022-10-17T12:44:59;101636.38;;;25.65;48.01
67015;BME280;1033;52.560;13.374;2022-10-17T12:47:36;101648.34;;;25.61;48.16
67015;BME280;1033;52.560;13.374;2022-10-17T12:53:14;101649.91;;;25.77;47.92
67015;BME280;1033;52.560;13.374;2022-10-17T12:55:46;101646.66;;;25.65;48.02
67015;BME280;1033;52.560;13.374;2022-10-17T12:58:19;101641.34;;;25.68;48.11
67015;BME280;1033;52.560;13.374;2022-10-17T13:00:51;101630.50;;;25.72;47.81
67015;BME280;1033;52.560;13.374;2022-10-17T13:03:43;101630.25;;;25.73;47.91
67015;BME280;1033;52.560;13.374;2022-10-17T13:06:18;101631.41;;;25.62;48.21
67015;BME280;1033;52.560;13.374;2022-10-17T13:08:51;101630.06;;;25.55;48.04
67015;BME280;1033;52.560;13.374;2022-10-17T13:11:32;101629.72;;;25.61;47.90
67015;BME280;1033;52.560;13.374;2022-10-17T13:14:11;101630.56;;;25.51;48.11
67015;BME280;1033;52.560;13.374;2022-10-17T13:16:50;101624.25;;;25.51;48.40
67015;BME280;1033;52.560;13.374;2022-10-17T13:19:22;101627.28;;;25.55;48.14
67015;BME280;1033;52.560;13.374;2022-10-17T13:21:53;101632.81;;;25.60;48.43
67015;BME280;1033;52.560;13.374;2022-10-17T13:24:30;101626.19;;;25.56;48.49
67015;BME280;1033;52.560;13.374;2022-10-17T13:27:02;101636.13;;;25.51;48.62
67015;BME280;1033;52.560;13.374;2022-10-17T13:29:33;101625.59;;;25.53;48.56
67015;BME280;1033;52.560;13.374;2022-10-17T13:32:03;101626.63;;;25.73;48.33
67015;BME280;1033;52.560;13.374;2022-10-17T13:34:33;101613.88;;;25.72;48.37